Latest Weather Observations for Warragul (Nilma North)

IDV60801

Issued at 6:03 am EST Tuesday 26 July 2016 (issued every 30 minutes, with the page automatically refreshed every 10 minutes)

About weather observations | Map of weather stations | Latest weather observations for VIC | Other Formats
Station Details ID: 085313 Name: NILMA NORTH (WARRAGUL) Lat: -38.13 Lon: 145.99 Height: 134.11 m
Data from the previous 72 hours. | See also: Recent months for locations in Victoria
Date/Time
EST
Temp
°C
App
Temp
°C
Dew
Point
°C
Rel
Hum
%
Delta-T
°C
Wind Press
QNH
hPa
Press
MSL
hPa
Rain since
9am
mm
Dir  Spd
km/h
Gust
km/h
Spd
kts
Gust
kts
26/06:00am 6.5 0.5 1.2 69 2.1 WNW 22 37 12 20 1008.8 1009.0 6.4
26/05:46am 6.7 -0.4 1.2 68 2.2 WNW 28 48 15 26 1008.7 1008.9 6.4
26/05:30am 6.8 0.1 1.3 68 2.2 WNW 26 39 14 21 1008.6 1008.8 6.4
26/05:00am 6.6 -0.9 1.3 69 2.1 WNW 30 44 16 24 1008.3 1008.5 6.4
26/04:30am 6.8 -0.7 1.1 67 2.3 WNW 30 48 16 26 1007.8 1008.0 6.4
26/04:04am 6.7 -0.4 1.2 68 2.2 WNW 28 46 15 25 1007.7 1007.9 6.4
26/04:00am 6.5 -0.6 1.4 70 2.1 WNW 28 44 15 24 1007.8 1008.0 6.4
26/03:30am 6.7 -0.4 1.4 69 2.1 WNW 28 41 15 22 1007.5 1007.7 6.4
26/03:00am 6.6 -0.2 1.1 68 2.2 WNW 26 46 14 25 1007.2 1007.4 6.4
26/02:30am 6.8 0.1 1.3 68 2.2 WNW 26 43 14 23 1007.1 1007.3 6.4
26/02:00am 6.8 0.9 1.5 69 2.2 WNW 22 35 12 19 1007.1 1007.3 6.4
26/01:30am 6.6 0.7 1.7 71 2.0 WNW 22 41 12 22 1007.0 1007.2 6.4
26/01:00am 6.3 0.4 2.0 74 1.8 WNW 22 41 12 22 1006.8 1007.0 6.4
26/12:30am 6.5 0.2 1.8 72 1.9 WNW 24 41 13 22 1006.7 1006.9 6.4
26/12:00am 6.8 0.2 1.9 71 2.0 WNW 26 43 14 23 1006.2 1006.4 6.4
 
Date/Time
EST
Temp
°C
App
Temp
°C
Dew
Point
°C
Rel
Hum
%
Delta-T
°C
Wind Press
QNH
hPa
Press
MSL
hPa
Rain since
9am
mm
Dir  Spd
km/h
Gust
km/h
Spd
kts
Gust
kts
25/11:32pm 7.0 0.0 1.7 69 2.2 WNW 28 48 15 26 1006.1 1006.3 6.4
25/11:30pm 7.0 -0.4 1.7 69 2.2 WNW 30 48 16 26 1006.1 1006.3 6.4
25/11:00pm 7.7 -0.3 1.8 66 2.4 WNW 33 54 18 29 1005.4 1005.7 6.4
25/10:58pm 7.6 0.2 2.1 68 2.3 WNW 30 54 16 29 1005.4 1005.7 6.4
25/10:30pm 8.1 1.2 2.8 69 2.2 WNW 28 44 15 24 1005.2 1005.5 6.4
25/10:00pm 8.3 -0.6 3.0 69 2.3 WNW 39 61 21 33 1004.5 1004.7 6.4
25/09:30pm 8.4 -0.8 3.7 72 2.0 WNW 41 69 22 37 1004.5 1004.7 6.4
25/09:00pm 8.1 0.0 5.4 83 1.2 WNW 37 59 20 32 1003.8 1004.0 6.4
25/08:44pm 8.3 -0.6 5.1 80 1.4 W 41 69 22 37 1003.5 1003.7 6.0
25/08:30pm 8.1 2.0 6.4 89 0.8 WNW 28 50 15 27 1003.5 1003.7 6.0
25/08:25pm 8.0 1.9 6.6 91 0.6 WNW 28 50 15 27 1003.5 1003.7 6.0
25/08:00pm 7.2 1.8 6.5 95 0.3 WNW 24 39 13 21 1003.2 1003.4 6.0
25/07:30pm 6.2 -5.1 5.2 93 0.4 W 54 83 29 45 1003.1 1003.3 3.6
25/07:16pm 9.7 3.2 6.4 80 1.5 WNW 30 83 16 45 1002.9 1003.1 0.4
25/07:15pm 9.8 4.0 6.3 79 1.6 WNW 26 59 14 32 1003.0 1003.2 0.2
25/07:00pm 10.3 4.7 5.5 72 2.2 NW 24 44 13 24 1001.5 1001.7 0.0
25/06:30pm 10.3 4.6 5.1 70 2.4 NNW 24 39 13 21 1001.5 1001.7 0.0
25/06:00pm 10.7 4.1 4.2 64 2.9 NNW 28 54 15 29 1001.4 1001.6 0.0
25/05:59pm 10.7 4.1 4.2 64 2.9 NNW 28 54 15 29 1001.5 1001.7 0.0
25/05:30pm 10.8 4.9 3.8 62 3.1 NNW 24 43 13 23 1002.1 1002.3 0.0
25/05:00pm 10.7 5.1 3.5 61 3.2 NNW 22 39 12 21 1002.8 1003.0 0.0
25/04:30pm 10.9 5.9 3.7 61 3.2 NNW 19 32 10 17 1002.9 1003.1 0.0
25/04:00pm 11.5 4.8 3.5 58 3.6 NNW 28 48 15 26 1003.2 1003.4 0.0
25/03:59pm 11.6 4.9 3.6 58 3.6 NNW 28 48 15 26 1003.2 1003.4 0.0
25/03:30pm 11.4 6.4 3.4 58 3.5 NNW 19 32 10 17 1003.6 1003.8 0.0
25/03:00pm 11.6 6.7 3.9 59 3.5 NW 19 30 10 16 1004.0 1004.2 0.0
25/02:30pm 11.8 6.2 3.3 56 3.8 NW 22 37 12 20 1004.3 1004.5 0.0
25/02:10pm 11.8 5.3 4.5 61 3.3 NW 28 46 15 25 1004.7 1004.9 0.0
25/02:00pm 12.2 5.6 4.2 58 3.7 NW 28 46 15 25 1004.5 1004.7 0.0
25/01:30pm 11.8 6.7 6.1 68 2.7 NW 22 37 12 20 1005.4 1005.7 0.0
25/01:00pm 10.9 5.6 6.6 75 2.0 WNW 24 39 13 21 1006.2 1006.4 0.0
25/12:30pm 10.5 5.8 6.1 74 2.1 WNW 20 35 11 19 1006.5 1006.7 0.0
25/12:00pm 10.8 4.7 6.6 75 2.0 NW 28 41 15 22 1007.0 1007.2 0.0
25/11:30am 9.9 3.7 6.1 77 1.8 WNW 28 46 15 25 1007.4 1007.6 0.0
25/11:26am 9.9 3.6 5.7 75 1.9 WNW 28 46 15 25 1007.4 1007.6 0.0
25/11:00am 10.2 5.1 6.2 76 1.9 WNW 22 35 12 19 1007.4 1007.6 0.0
25/10:30am 9.5 4.0 5.9 78 1.7 WNW 24 41 13 22 1007.6 1007.8 0.0
25/10:00am 9.6 4.6 6.5 81 1.5 WNW 22 43 12 23 1007.4 1007.6 0.0
25/09:30am 9.2 4.1 6.1 81 1.4 WNW 22 37 12 20 1007.2 1007.4 0.0
25/09:00am 8.9 2.9 5.5 79 1.6 WNW 26 43 14 23 1007.1 1007.3 0.0
25/08:37am 9.0 2.6 5.0 76 1.8 WNW 28 46 15 25 1006.9 1007.1 0.0
25/08:30am 9.0 3.3 5.0 76 1.8 WNW 24 46 13 25 1006.9 1007.1 0.0
25/08:00am 9.1 3.4 4.7 74 2.0 NW 24 43 13 23 1006.6 1006.8 0.0
25/07:30am 8.9 3.1 4.5 74 2.0 WNW 24 41 13 22 1006.3 1006.5 0.0
25/07:00am 8.2 3.8 5.0 80 1.4 WNW 17 28 9 15 1006.0 1006.2 0.0
25/06:30am 8.1 2.7 4.5 78 1.6 WNW 22 35 12 19 1005.6 1005.9 0.0
25/06:00am 8.1 2.4 4.7 79 1.5 NW 24 39 13 21 1005.3 1005.6 0.0
25/05:30am 8.0 2.5 4.2 77 1.7 NW 22 37 12 20 1005.3 1005.6 0.0
25/05:00am 8.3 3.3 3.8 73 2.0 WNW 19 32 10 17 1005.1 1005.3 0.0
25/04:30am 8.0 2.8 3.5 73 1.9 NW 20 33 11 18 1004.7 1004.9 0.0
25/04:00am 6.9 3.7 3.3 78 1.5 NW 9 17 5 9 1004.5 1004.7 0.0
25/03:30am 6.0 2.7 2.6 79 1.4 NW 9 15 5 8 1004.4 1004.6 0.0
25/03:00am 6.5 3.3 2.9 78 1.5 NW 9 15 5 8 1004.2 1004.4 0.0
25/02:30am 5.8 2.6 2.8 81 1.2 NW 9 13 5 7 1004.3 1004.5 0.0
25/02:00am 6.6 3.0 2.9 77 1.6 NW 11 17 6 9 1004.3 1004.5 0.0
25/01:30am 7.2 2.9 3.1 75 1.7 NW 15 28 8 15 1004.3 1004.5 0.0
25/01:00am 7.5 2.8 3.2 74 1.8 NW 17 26 9 14 1004.4 1004.6 0.0
25/12:30am 6.8 2.9 3.2 78 1.5 NW 13 22 7 12 1004.5 1004.7 0.0
25/12:00am 6.8 3.7 3.4 79 1.5 NNW 9 13 5 7 1004.7 1004.9 0.0
 
Date/Time
EST
Temp
°C
App
Temp
°C
Dew
Point
°C
Rel
Hum
%
Delta-T
°C
Wind Press
QNH
hPa
Press
MSL
hPa
Rain since
9am
mm
Dir  Spd
km/h
Gust
km/h
Spd
kts
Gust
kts
24/11:30pm 7.6 4.5 3.6 76 1.7 NNW 9 15 5 8 1004.7 1004.9 0.0
24/11:00pm 7.4 4.3 3.5 76 1.7 NNW 9 17 5 9 1004.7 1004.9 0.0
24/10:30pm 7.4 3.9 3.5 76 1.7 NNW 11 17 6 9 1004.7 1004.9 0.0
24/10:00pm 7.6 5.4 3.6 76 1.7 NNW 4 11 2 6 1004.9 1005.1 0.0
24/09:30pm 7.5 4.9 3.4 75 1.8 W 6 7 3 4 1005.1 1005.3 0.0
24/09:00pm 8.5 5.8 2.9 68 2.4 N 6 13 3 7 1004.8 1005.0 0.0
24/08:30pm 7.9 5.2 2.8 70 2.2 N 6 9 3 5 1005.1 1005.3 0.0
24/08:00pm 7.3 4.6 2.6 72 2.0 NNE 6 9 3 5 1005.2 1005.5 0.0
24/07:30pm 7.4 5.0 2.3 70 2.1 NNE 4 7 2 4 1005.3 1005.6 0.0
24/07:00pm 7.8 5.1 2.7 70 2.2 NNE 6 9 3 5 1005.2 1005.5 0.0
24/06:30pm 8.2 5.5 2.9 69 2.3 NNE 6 7 3 4 1005.2 1005.5 0.0
24/06:00pm 8.3 5.6 2.8 68 2.3 N 6 9 3 5 1005.2 1005.5 0.0
24/05:30pm 8.5 5.2 2.7 67 2.5 NNW 9 17 5 9 1005.5 1005.8 0.0
24/05:00pm 8.5 5.6 2.7 67 2.5 NNW 7 13 4 7 1005.8 1006.0 0.0
24/04:30pm 8.7 5.9 2.9 67 2.5 NNW 7 11 4 6 1006.1 1006.3 0.0
24/04:00pm 9.1 5.1 3.1 66 2.6 NW 13 24 7 13 1006.3 1006.5 0.0
24/03:30pm 9.9 5.5 2.7 61 3.1 NW 15 24 8 13 1006.5 1006.7 0.0
24/03:00pm 9.6 4.3 3.1 64 2.8 NW 20 32 11 17 1006.4 1006.6 0.0
24/02:30pm 10.5 5.2 3.1 60 3.2 NNW 20 35 11 19 1006.5 1006.7 0.0
24/02:00pm 10.8 5.2 3.4 60 3.3 NW 22 43 12 23 1006.8 1007.0 0.0
24/01:30pm 10.5 4.4 2.8 59 3.3 NW 24 39 13 21 1007.0 1007.2 0.0
24/01:00pm 10.1 4.0 2.7 60 3.2 NW 24 39 13 21 1007.4 1007.6 0.0
24/12:30pm 9.8 5.0 2.4 60 3.2 NW 17 30 9 16 1007.9 1008.1 0.0
24/12:00pm 10.2 4.9 2.8 60 3.2 NW 20 35 11 19 1008.4 1008.6 0.0
24/11:30am 10.2 5.1 3.3 62 3.0 NW 19 32 10 17 1009.0 1009.2 0.0
24/11:00am 9.6 6.0 2.9 63 2.9 NNW 11 20 6 11 1009.6 1009.8 0.0
24/10:30am 9.7 6.5 3.0 63 2.9 NNW 9 15 5 8 1009.9 1010.1 0.0
24/10:00am 8.8 5.1 2.6 65 2.6 NNW 11 19 6 10 1009.9 1010.1 0.0
24/09:30am 6.8 5.1 4.1 83 1.2 ENE 2 4 1 2 1010.4 1010.6 0.0
24/09:00am 5.2 3.5 1.9 79 1.3 CALM 0 2 0 1 1010.5 1010.7 11.0
24/08:30am 5.1 2.6 1.6 78 1.4 WSW 4 4 2 2 1010.3 1010.5 11.0
24/08:00am 2.5 -0.1 0.7 88 0.7 ENE 4 6 2 3 1010.3 1010.5 11.0
24/07:30am 2.4 -0.3 0.3 86 0.8 NW 4 6 2 3 1010.4 1010.6 11.0
24/07:00am 2.7 -0.4 0.1 83 1.0 NW 6 7 3 4 1010.4 1010.6 11.0
24/06:30am 4.1 1.1 1.0 80 1.2 N 6 7 3 4 1010.3 1010.5 11.0
24/06:00am 3.5 0.5 0.9 83 1.0 NNW 6 7 3 4 1010.4 1010.6 11.0
24/05:30am 3.8 0.7 1.4 84 0.9 NW 7 9 4 5 1010.6 1010.8 11.0
24/05:00am 3.5 0.4 1.1 84 0.9 NW 7 9 4 5 1010.8 1011.0 11.0
24/04:30am 3.9 0.9 1.9 87 0.8 NW 7 9 4 5 1011.0 1011.2 11.0
24/04:00am 3.4 -0.1 1.4 87 0.8 NW 9 13 5 7 1011.1 1011.3 11.0
24/03:30am 3.2 0.3 1.3 87 0.7 NW 6 9 3 5 1011.1 1011.3 11.0
24/03:00am 3.9 0.5 1.6 85 0.9 NW 9 13 5 7 1011.1 1011.3 11.0
24/02:30am 4.0 1.0 2.0 87 0.8 NW 7 11 4 6 1011.3 1011.5 11.0
24/02:00am 3.8 0.5 2.2 89 0.6 WNW 9 15 5 8 1011.3 1011.5 11.0
24/01:30am 4.7 1.1 2.7 87 0.8 NW 11 17 6 9 1011.3 1011.5 11.0
24/01:00am 5.3 2.1 3.2 86 0.9 WNW 9 17 5 9 1011.5 1011.8 11.0
24/12:30am 5.5 1.6 3.3 86 0.9 WNW 13 20 7 11 1011.7 1012.0 11.0
24/12:00am 5.3 1.0 3.2 86 0.9 WNW 15 24 8 13 1011.7 1012.0 11.0
 
Date/Time
EST
Temp
°C
App
Temp
°C
Dew
Point
°C
Rel
Hum
%
Delta-T
°C
Wind Press
QNH
hPa
Press
MSL
hPa
Rain since
9am
mm
Dir  Spd
km/h
Gust
km/h
Spd
kts
Gust
kts
23/11:30pm 5.5 1.2 3.3 86 0.9 WNW 15 24 8 13 1011.7 1012.0 11.0
23/11:00pm 5.6 0.9 3.4 86 0.9 WNW 17 24 9 13 1011.6 1011.9 11.0
23/10:30pm 5.7 1.1 3.5 86 0.9 WNW 17 26 9 14 1011.6 1011.9 11.0
23/10:00pm 5.8 1.2 3.8 87 0.9 WNW 17 26 9 14 1011.5 1011.8 11.0
23/09:30pm 5.6 0.7 4.1 90 0.6 WNW 19 28 10 15 1011.4 1011.7 11.0
23/09:00pm 5.3 -1.8 3.6 89 0.7 WNW 30 44 16 24 1010.9 1011.1 11.0
23/08:30pm 5.5 0.9 3.7 88 0.8 WNW 17 32 9 17 1010.8 1011.0 10.4
23/08:00pm 6.2 1.1 4.2 87 0.9 WNW 20 32 11 17 1010.6 1010.8 8.8
23/07:30pm 6.4 1.2 3.7 83 1.2 WNW 20 37 11 20 1010.0 1010.2 8.6
23/07:00pm 6.6 1.5 3.9 83 1.2 WNW 20 33 11 18 1009.7 1009.9 8.6
23/06:30pm 6.5 0.9 3.7 82 1.2 WNW 22 39 12 21 1009.0 1009.2 8.6
23/06:00pm 6.3 0.4 3.8 84 1.1 WNW 24 35 13 19 1008.6 1008.8 8.6
23/05:30pm 6.5 0.7 4.5 87 0.9 W 24 35 13 19 1008.2 1008.4 8.2
23/05:04pm 6.2 -0.8 4.0 86 0.9 W 30 52 16 28 1007.7 1007.9 8.2
23/05:00pm 6.6 0.5 4.6 87 0.9 W 26 37 14 20 1008.1 1008.3 7.8
23/04:30pm 7.5 0.8 3.9 78 1.6 WNW 28 44 15 24 1007.1 1007.3 6.8
23/04:10pm 7.5 0.0 3.4 75 1.8 WNW 32 52 17 28 1006.5 1006.7 6.8
23/04:00pm 7.8 0.8 4.0 77 1.7 WNW 30 46 16 25 1006.6 1006.8 6.8
23/03:30pm 8.1 0.7 3.9 75 1.8 WNW 32 50 17 27 1006.1 1006.3 6.8
23/03:00pm 7.6 0.7 4.4 80 1.4 WNW 30 54 16 29 1005.4 1005.7 6.8
23/02:30pm 8.2 -0.2 3.9 74 1.9 WNW 37 61 20 33 1005.0 1005.2 6.8
23/02:06pm 6.8 -0.6 4.1 83 1.2 W 32 61 17 33 1004.8 1005.0 6.8
23/02:00pm 6.9 -0.4 4.4 84 1.1 W 32 46 17 25 1004.8 1005.0 6.8
23/01:30pm 6.2 0.8 4.4 88 0.8 W 22 43 12 23 1005.0 1005.2 5.6
23/01:00pm 4.6 -3.9 3.4 92 0.5 W 37 50 20 27 1005.0 1005.2 5.4
23/12:40pm 6.4 -1.3 2.5 76 1.6 W 32 61 17 33 1004.6 1004.8 4.0
23/12:30pm 7.2 0.4 3.1 75 1.7 W 28 46 15 25 1004.2 1004.4 3.8
23/12:09pm 7.0 -0.6 4.1 82 1.3 W 33 52 18 28 1004.3 1004.5 3.6
23/12:00pm 6.2 -1.8 3.7 84 1.1 WNW 35 52 19 28 1004.3 1004.5 3.6
23/11:30am 5.0 -2.7 3.5 90 0.6 W 33 57 18 31 1004.4 1004.6 3.6
23/11:13am 4.2 -2.8 1.9 85 0.9 W 28 56 15 30 1004.4 1004.6 3.4
23/11:00am 5.9 -0.4 3.7 86 0.9 W 26 37 14 20 1003.9 1004.1 2.4
23/10:30am 5.0 -0.3 3.2 88 0.7 W 20 37 11 20 1003.9 1004.1 1.2
23/10:00am 6.0 0.7 1.9 75 1.7 W 19 33 10 18 1003.3 1003.5 0.2
23/09:33am 6.2 -2.8 2.5 77 1.5 WNW 39 59 21 32 1002.1 1002.3 0.0
23/09:30am 6.2 -2.8 2.5 77 1.5 WNW 39 57 21 31 1002.0 1002.2 0.0
23/09:05am 4.8 -3.1 2.2 83 1.1 WNW 33 54 18 29 1001.6 1001.8 0.0
23/09:00am 4.8 -3.5 2.0 82 1.1 WNW 35 54 19 29 1001.5 1001.7 29.8
23/08:44am 5.9 -4.1 1.1 71 1.9 W 43 72 23 39 1000.5 1000.7 29.8
23/08:30am 5.5 -2.6 3.3 86 0.9 W 35 54 19 29 1000.6 1000.8 29.8
23/08:03am 5.7 -1.3 4.0 89 0.7 W 30 61 16 33 1000.0 1000.2 28.4
23/08:00am 5.7 -0.9 4.2 90 0.6 W 28 46 15 25 999.8 1000.0 28.4
23/07:30am 6.2 -2.0 4.8 91 0.6 W 37 59 20 32 999.2 999.4 27.0
23/07:04am 6.8 -0.3 5.6 92 0.5 W 32 50 17 27 998.1 998.2 26.2
23/07:00am 6.8 -0.5 5.6 92 0.5 W 33 50 18 27 998.1 998.2 26.2
23/06:33am 6.8 -0.9 5.4 91 0.6 WNW 35 57 19 31 997.5 997.7 24.6
23/06:30am 6.9 -0.4 5.4 90 0.7 WNW 33 52 18 28 997.4 997.6 24.2

Other Formats:

Comma delimited format used in spreadsheet applications
http://www.bom.gov.au/fwo/IDV60801/IDV60801.99806.axf

JavaScript Object Notation format (JSON) in row-major order
http://www.bom.gov.au/fwo/IDV60801/IDV60801.99806.json